Time;durP1;ratioP1;P1;durP2;ratioP2;P2;SDS_P1;SDS_P2;PMS_P1;PMS_P2;Temp;Humidity;BMP_temperature;BMP_pressure;BME280_temperature;BME280_humidity;BME280_pressure;Samples;Min_cycle;Max_cycle;Signal;HPM_P1;HPM_P2
2021/12/07 00:02:23;;;;;;;12.02;6.25;;;6.20;97.80;;;;;;10499578;28;20027;-63
2021/12/07 00:07:23;;;;;;;11.68;6.60;;;6.20;97.80;;;;;;10487633;28;20040;-65
2021/12/07 00:12:28;;;;;;;11.82;6.15;;;6.20;97.80;;;;;;10481098;28;20028;-72
2021/12/07 00:17:30;;;;;;;12.43;6.95;;;6.20;97.70;;;;;;10500075;28;20424;-65
2021/12/07 00:22:31;;;;;;;11.15;5.95;;;6.20;97.70;;;;;;10494399;28;20070;-66
2021/12/07 00:27:32;;;;;;;10.52;6.68;;;6.20;97.70;;;;;;10492704;28;20400;-70
2021/12/07 00:32:38;;;;;;;12.82;6.47;;;6.20;97.70;;;;;;10492158;28;20075;-69
2021/12/07 00:37:42;;;;;;;13.43;6.30;;;6.20;97.70;;;;;;10481336;28;20468;-70
2021/12/07 00:42:45;;;;;;;11.75;5.97;;;6.20;97.70;;;;;;10489657;28;20275;-72
2021/12/07 00:47:48;;;;;;;15.20;6.80;;;6.10;97.60;;;;;;10486425;28;20094;-67
2021/12/07 00:52:49;;;;;;;11.65;6.05;;;6.20;97.60;;;;;;10492019;28;20098;-66
2021/12/07 00:57:53;;;;;;;12.00;6.28;;;6.10;97.60;;;;;;10491953;28;20424;-70
2021/12/07 01:02:54;;;;;;;10.57;5.68;;;6.10;97.60;;;;;;10491766;28;20480;-69
2021/12/07 01:29:00;;;;;;;8.00;4.40;;;6.00;97.20;;;;;;10489781;28;20317;-72
2021/12/07 02:00:17;;;;;;;7.75;4.38;;;6.00;97.50;;;;;;10487185;28;20074;-65
2021/12/07 02:05:18;;;;;;;7.88;4.40;;;6.00;97.50;;;;;;10489943;28;20027;-66
2021/12/07 02:10:23;;;;;;;7.88;4.00;;;6.10;97.50;;;;;;10489954;28;20044;-63
2021/12/07 02:15:25;;;;;;;6.70;3.67;;;6.20;97.50;;;;;;10491139;28;20478;-70
2021/12/07 02:20:29;;;;;;;6.63;3.65;;;6.00;97.40;;;;;;10472040;28;20029;-68
2021/12/07 02:25:32;;;;;;;7.65;4.00;;;6.10;97.50;;;;;;10487199;28;20496;-70
2021/12/07 02:30:33;;;;;;;6.35;3.80;;;6.10;97.40;;;;;;10489876;28;20048;-68
2021/12/07 02:35:34;;;;;;;5.90;3.40;;;6.10;97.40;;;;;;10477136;28;20489;-66
2021/12/07 02:40:35;;;;;;;6.68;3.72;;;6.10;97.40;;;;;;10485833;28;20025;-67
2021/12/07 02:45:35;;;;;;;6.13;3.47;;;6.10;97.40;;;;;;10481847;28;20017;-72
2021/12/07 02:50:36;;;;;;;5.88;3.45;;;6.00;97.40;;;;;;10487452;28;20121;-69
2021/12/07 02:55:37;;;;;;;5.95;3.25;;;6.00;97.40;;;;;;10487644;28;20381;-64
2021/12/07 03:00:46;;;;;;;6.57;3.67;;;6.10;97.40;;;;;;10486840;28;20398;-68
2021/12/07 03:06:00;;;;;;;7.07;3.70;;;6.10;97.40;;;;;;10479663;28;20036;-64
2021/12/07 03:27:01;;;;;;;4.68;2.90;;;6.00;97.70;;;;;;10486702;28;20033;-64
2021/12/07 03:32:02;;;;;;;4.93;3.47;;;6.00;97.40;;;;;;10486488;28;20017;-68
2021/12/07 03:37:03;;;;;;;4.95;3.20;;;6.00;97.40;;;;;;10475653;28;20033;-70
2021/12/07 03:42:04;;;;;;;5.72;3.50;;;6.00;97.40;;;;;;10482996;28;20054;-64
2021/12/07 03:47:04;;;;;;;6.03;3.60;;;6.00;97.40;;;;;;10485818;28;20049;-71
2021/12/07 03:52:06;;;;;;;6.32;3.55;;;6.00;97.40;;;;;;10485593;28;20072;-71
2021/12/07 03:57:06;;;;;;;4.85;3.00;;;6.00;97.40;;;;;;10488391;28;20514;-70
2021/12/07 04:02:07;;;;;;;4.05;2.75;;;6.00;97.40;;;;;;10493294;28;20103;-70
2021/12/07 04:07:08;;;;;;;6.25;2.75;;;6.00;97.40;;;;;;10482638;28;20032;-71
2021/12/07 04:12:09;;;;;;;4.82;3.17;;;6.00;97.40;;;;;;10493585;28;20035;-67
2021/12/07 04:17:09;;;;;;;4.32;2.65;;;7.10;97.70;;;;;;10493397;28;20028;-70
2021/12/07 04:22:10;;;;;;;4.50;2.88;;;5.90;97.40;;;;;;10492252;28;20390;-70
2021/12/07 04:27:11;;;;;;;4.70;2.78;;;6.00;97.40;;;;;;10492945;28;20266;-72
2021/12/07 04:32:14;;;;;;;7.20;2.92;;;6.00;97.50;;;;;;10493253;28;20024;-71
2021/12/07 04:37:14;;;;;;;4.40;2.47;;;5.90;97.40;;;;;;10480752;28;20023;-71
2021/12/07 04:42:15;;;;;;;6.03;2.97;;;6.00;97.50;;;;;;10488348;28;20020;-71
2021/12/07 04:47:24;;;;;;;5.38;2.63;;;6.00;97.40;;;;;;10485958;28;20041;-72
2021/12/07 04:57:47;;;;;;;5.35;2.75;;;6.00;97.40;;;;;;10489960;28;20063;-70
2021/12/07 05:02:54;;;;;;;4.90;2.92;;;5.90;97.40;;;;;;10480447;28;20487;-70
2021/12/07 05:07:58;;;;;;;3.58;2.08;;;5.90;97.40;;;;;;10490507;28;20041;-63
2021/12/07 05:18:40;;;;;;;4.90;2.58;;;6.20;97.50;;;;;;10488437;28;20024;-69
2021/12/07 05:39:28;;;;;;;6.22;2.60;;;5.90;97.40;;;;;;10487731;28;20047;-68
2021/12/07 05:44:29;;;;;;;4.75;2.50;;;5.90;97.40;;;;;;10489348;28;20027;-68
2021/12/07 05:49:29;;;;;;;4.13;2.65;;;5.90;97.40;;;;;;10482694;28;20088;-69
2021/12/07 05:54:30;;;;;;;4.95;2.38;;;5.90;97.70;;;;;;10487778;28;20029;-72
2021/12/07 05:59:31;;;;;;;5.05;2.83;;;5.90;97.50;;;;;;10487638;28;20035;-67
2021/12/07 06:04:32;;;;;;;7.63;3.25;;;5.90;97.40;;;;;;10473340;28;20403;-72
2021/12/07 06:09:33;;;;;;;5.63;3.00;;;5.80;97.40;;;;;;10483796;28;20041;-68
2021/12/07 06:14:41;;;;;;;5.82;3.05;;;5.80;97.40;;;;;;10486833;28;20035;-71
2021/12/07 06:19:42;;;;;;;6.63;2.85;;;5.80;97.40;;;;;;10486304;28;20100;-68
2021/12/07 06:24:43;;;;;;;6.10;2.92;;;5.90;97.50;;;;;;10480612;28;20450;-71
2021/12/07 06:29:44;;;;;;;7.13;3.28;;;5.90;97.40;;;;;;10454722;28;20036;-72
2021/12/07 06:34:44;;;;;;;5.75;3.08;;;5.90;97.40;;;;;;10466832;28;20029;-68
2021/12/07 06:39:45;;;;;;;5.40;2.70;;;5.90;97.40;;;;;;10469435;28;20029;-70
2021/12/07 06:44:46;;;;;;;6.25;2.90;;;5.90;97.40;;;;;;10485142;28;20025;-70
2021/12/07 06:49:48;;;;;;;5.22;2.65;;;5.90;97.40;;;;;;10480014;28;20106;-73
2021/12/07 06:54:49;;;;;;;6.03;2.83;;;5.80;97.40;;;;;;10485361;28;20478;-67
2021/12/07 06:59:50;;;;;;;5.28;2.55;;;5.80;97.40;;;;;;10481092;28;20024;-65
2021/12/07 07:04:51;;;;;;;5.68;2.50;;;5.80;97.70;;;;;;10474956;28;20117;-68
2021/12/07 07:09:52;;;;;;;8.48;2.88;;;5.80;97.40;;;;;;10478614;28;20041;-66
2021/12/07 07:14:53;;;;;;;5.10;2.70;;;5.80;97.40;;;;;;10468518;28;20060;-69
2021/12/07 07:19:53;;;;;;;7.32;2.75;;;5.80;97.40;;;;;;10448979;28;20025;-69
2021/12/07 07:24:54;;;;;;;7.75;3.00;;;5.80;97.40;;;;;;10453296;28;20032;-65
2021/12/07 07:29:55;;;;;;;5.28;2.97;;;5.80;97.40;;;;;;10486839;28;20498;-68
2021/12/07 07:34:56;;;;;;;4.95;2.95;;;5.80;97.40;;;;;;10482837;28;20032;-71
2021/12/07 07:39:57;;;;;;;5.35;2.38;;;7.00;97.70;;;;;;10491263;28;20040;-70
2021/12/07 07:44:57;;;;;;;6.75;2.63;;;5.90;97.80;;;;;;10492035;28;20600;-72
2021/12/07 07:49:58;;;;;;;6.68;2.78;;;5.90;97.40;;;;;;10479676;28;20518;-69
2021/12/07 07:54:59;;;;;;;6.47;3.03;;;5.90;97.40;;;;;;10485655;28;20029;-69
2021/12/07 07:59:59;;;;;;;7.03;2.75;;;5.90;97.40;;;;;;10493308;28;20031;-69
2021/12/07 08:05:00;;;;;;;5.35;2.67;;;5.90;97.40;;;;;;10481240;28;20547;-70
2021/12/07 08:10:03;;;;;;;9.57;2.90;;;6.20;97.50;;;;;;10481010;28;20040;-69
2021/12/07 08:15:05;;;;;;;11.52;2.80;;;5.90;97.40;;;;;;10492485;28;20072;-66
2021/12/07 08:20:06;;;;;;;5.68;2.30;;;5.90;97.40;;;;;;10491824;28;20035;-65
2021/12/07 08:25:07;;;;;;;8.48;2.78;;;5.90;97.40;;;;;;10482469;28;20027;-69
2021/12/07 08:30:11;;;;;;;8.65;2.70;;;5.90;97.40;;;;;;10484142;28;20047;-67
2021/12/07 08:35:16;;;;;;;6.60;2.40;;;5.90;97.40;;;;;;10489815;28;20109;-69
2021/12/07 08:40:21;;;;;;;8.27;2.30;;;7.00;97.60;;;;;;10490594;28;20429;-68
2021/12/07 08:45:23;;;;;;;7.45;2.58;;;5.90;97.30;;;;;;10476145;28;20104;-71
2021/12/07 08:50:29;;;;;;;7.32;2.42;;;5.90;97.30;;;;;;10483599;28;20048;-70
2021/12/07 09:00:52;;;;;;;7.47;2.20;;;6.00;97.20;;;;;;10491220;28;20111;-70
2021/12/07 09:05:54;;;;;;;4.68;2.08;;;6.10;97.20;;;;;;10491296;28;20039;-70
2021/12/07 09:10:55;;;;;;;8.57;2.28;;;6.10;97.20;;;;;;10478445;28;20129;-67
2021/12/07 09:15:57;;;;;;;6.25;2.22;;;6.10;97.20;;;;;;10462115;28;20418;-68
2021/12/07 09:20:59;;;;;;;9.05;2.45;;;6.10;97.10;;;;;;10485046;28;20096;-71
2021/12/07 09:26:00;;;;;;;9.93;3.03;;;6.10;97.10;;;;;;10477982;28;20036;-66
2021/12/07 09:31:01;;;;;;;7.40;2.20;;;6.20;97.10;;;;;;10488879;28;20347;-70
2021/12/07 09:36:03;;;;;;;6.00;2.17;;;6.20;97.10;;;;;;10476600;28;20037;-71
2021/12/07 09:41:06;;;;;;;4.65;2.28;;;6.20;97.10;;;;;;10485202;28;20051;-71
2021/12/07 09:46:08;;;;;;;4.10;2.15;;;6.20;97.10;;;;;;10481550;28;20070;-70
2021/12/07 09:51:13;;;;;;;6.85;2.10;;;6.20;97.10;;;;;;10487082;28;20037;-69
2021/12/07 09:56:14;;;;;;;4.53;2.45;;;6.30;97.20;;;;;;10488158;28;20035;-71
2021/12/07 10:01:16;;;;;;;6.47;2.40;;;6.30;97.10;;;;;;10487257;28;20048;-69
2021/12/07 10:06:17;;;;;;;9.52;2.50;;;6.40;97.10;;;;;;10462724;28;20475;-68
2021/12/07 10:11:18;;;;;;;3.50;2.00;;;6.50;97.10;;;;;;10454135;28;20087;-68
2021/12/07 10:16:20;;;;;;;5.30;1.92;;;6.60;97.00;;;;;;10452687;28;20112;-65
2021/12/07 10:21:38;;;;;;;9.63;2.38;;;6.70;97.00;;;;;;10488599;28;20604;-68
2021/12/07 10:26:42;;;;;;;4.35;1.98;;;6.70;96.90;;;;;;10487590;28;20020;-66
2021/12/07 10:31:45;;;;;;;3.83;2.30;;;6.80;96.90;;;;;;10483642;28;20044;-70
2021/12/07 10:37:06;;;;;;;4.97;1.98;;;6.90;96.80;;;;;;10455537;28;20024;-69
2021/12/07 10:42:11;;;;;;;6.60;2.03;;;7.00;96.80;;;;;;10454787;28;20021;-67
2021/12/07 10:47:15;;;;;;;5.80;1.83;;;7.10;96.80;;;;;;10454298;28;20021;-68
2021/12/07 10:52:26;;;;;;;6.60;2.38;;;7.20;96.80;;;;;;10453696;28;20189;-67
2021/12/07 10:57:38;;;;;;;5.75;2.30;;;7.20;96.80;;;;;;10472463;28;20047;-68
2021/12/07 11:02:41;;;;;;;4.07;2.15;;;7.20;96.70;;;;;;10431214;28;20052;-65
2021/12/07 11:07:42;;;;;;;6.57;2.25;;;7.30;96.80;;;;;;10448787;28;20036;-67
2021/12/07 11:12:57;;;;;;;7.47;2.20;;;7.40;96.70;;;;;;10453534;28;20037;-67
2021/12/07 11:18:11;;;;;;;3.20;1.52;;;7.40;96.70;;;;;;10459228;28;20496;-69
2021/12/07 11:23:16;;;;;;;5.30;2.47;;;7.50;96.80;;;;;;10450659;28;20117;-68
2021/12/07 11:34:03;;;;;;;4.90;2.00;;;7.50;96.80;;;;;;10454163;28;20029;-67
2021/12/07 11:39:35;;;;;;;5.70;1.52;;;7.50;96.80;;;;;;10448429;28;20482;-66
2021/12/07 11:44:46;;;;;;;5.57;1.50;;;7.50;96.90;;;;;;10458213;28;20035;-64
2021/12/07 11:49:46;;;;;;;4.93;1.75;;;7.50;96.90;;;;;;10479660;28;20045;-67
2021/12/07 11:54:47;;;;;;;3.13;1.35;;;7.50;96.90;;;;;;10503264;28;20056;-66
2021/12/07 11:59:49;;;;;;;4.07;1.58;;;7.50;97.00;;;;;;10469693;28;20045;-63
2021/12/07 12:04:50;;;;;;;8.20;2.03;;;7.80;97.10;;;;;;10453544;28;20025;-65
2021/12/07 12:09:52;;;;;;;6.10;2.00;;;7.50;97.00;;;;;;10447670;28;20047;-63
2021/12/07 12:15:16;;;;;;;3.08;1.33;;;7.50;97.00;;;;;;10456362;28;20439;-66
2021/12/07 12:20:58;;;;;;;6.18;1.60;;;7.50;97.10;;;;;;10452191;28;20112;-68
2021/12/07 12:26:04;;;;;;;5.15;1.65;;;7.50;97.10;;;;;;10463275;28;20327;-66
2021/12/07 12:31:07;;;;;;;6.13;2.40;;;7.40;97.10;;;;;;10472147;28;20465;-66
2021/12/07 12:36:07;;;;;;;4.72;1.70;;;7.40;97.20;;;;;;10472052;28;20490;-65
2021/12/07 12:41:11;;;;;;;7.40;1.92;;;7.40;97.20;;;;;;10471875;28;20025;-67
2021/12/07 12:46:18;;;;;;;11.35;2.03;;;7.40;97.30;;;;;;10461162;28;20484;-67
2021/12/07 12:51:19;;;;;;;8.18;2.38;;;7.30;97.30;;;;;;10462064;28;20056;-67
2021/12/07 12:56:26;;;;;;;5.30;2.13;;;7.30;97.30;;;;;;10465280;28;20033;-68
2021/12/07 13:01:43;;;;;;;5.35;1.80;;;7.30;97.40;;;;;;10463986;28;20473;-66
2021/12/07 13:07:30;;;;;;;7.38;2.38;;;7.30;97.70;;;;;;10452541;28;20032;-66
2021/12/07 13:12:31;;;;;;;4.88;2.45;;;7.30;97.50;;;;;;10453594;28;20059;-67
2021/12/07 13:17:45;;;;;;;7.93;2.90;;;7.20;97.50;;;;;;10453275;28;20025;-66
2021/12/07 13:22:56;;;;;;;11.13;3.35;;;6.80;97.40;;;;;;10458103;28;20094;-68
2021/12/07 13:28:04;;;;;;;9.40;3.63;;;7.20;97.50;;;;;;10457179;28;20044;-68
2021/12/07 13:33:12;;;;;;;5.80;3.28;;;7.20;97.50;;;;;;10471884;28;20025;-66
2021/12/07 13:38:18;;;;;;;6.88;3.72;;;7.10;97.50;;;;;;10486361;28;20115;-65
2021/12/07 13:43:36;;;;;;;7.82;4.03;;;7.20;97.60;;;;;;10484499;28;20433;-66
2021/12/07 13:48:37;;;;;;;9.90;3.33;;;7.20;97.60;;;;;;10482901;28;20036;-66
2021/12/07 13:53:41;;;;;;;7.10;3.95;;;7.10;97.60;;;;;;10478589;28;20280;-65
2021/12/07 13:59:09;;;;;;;14.02;3.95;;;7.10;97.60;;;;;;10488793;28;20036;-64
2021/12/07 14:04:10;;;;;;;8.33;4.00;;;7.10;97.60;;;;;;10470305;28;20163;-68
2021/12/07 14:09:11;;;;;;;10.50;3.83;;;7.10;97.70;;;;;;10483874;28;20442;-68
2021/12/07 14:14:15;;;;;;;11.50;4.65;;;7.00;97.60;;;;;;10480369;28;20009;-67
2021/12/07 14:19:18;;;;;;;11.65;4.25;;;7.00;97.70;;;;;;10482976;28;20551;-66
2021/12/07 14:24:20;;;;;;;8.07;4.10;;;7.20;97.80;;;;;;10487635;28;20036;-67
2021/12/07 14:29:25;;;;;;;8.98;4.22;;;7.00;97.70;;;;;;10486219;28;20033;-67
2021/12/07 14:34:32;;;;;;;13.80;4.32;;;6.90;97.70;;;;;;10452776;28;20020;-67
2021/12/07 14:39:36;;;;;;;14.07;4.68;;;7.00;97.80;;;;;;10476342;28;20025;-67
2021/12/07 14:44:39;;;;;;;8.25;4.30;;;6.90;97.80;;;;;;10453459;28;20021;-65
2021/12/07 14:49:46;;;;;;;12.02;4.32;;;6.90;97.80;;;;;;10464202;28;20523;-68
2021/12/07 14:54:49;;;;;;;14.20;5.00;;;6.90;97.80;;;;;;10482137;28;20375;-69
2021/12/07 14:59:53;;;;;;;8.90;4.00;;;6.90;97.90;;;;;;10485965;28;20025;-67
2021/12/07 15:05:00;;;;;;;8.68;4.25;;;6.90;98.00;;;;;;10467353;28;20487;-68
2021/12/07 15:10:04;;;;;;;11.50;4.25;;;6.80;97.90;;;;;;10485351;28;20028;-66
2021/12/07 15:15:06;;;;;;;12.05;3.90;;;6.80;98.00;;;;;;10479889;28;20108;-65
2021/12/07 15:20:10;;;;;;;10.50;4.32;;;6.80;98.00;;;;;;10480817;28;20032;-66
2021/12/07 15:25:14;;;;;;;7.55;3.83;;;6.80;98.00;;;;;;10489050;28;20032;-68
2021/12/07 15:30:17;;;;;;;7.50;3.70;;;6.70;98.00;;;;;;10486426;28;20111;-69
2021/12/07 15:35:25;;;;;;;11.10;3.92;;;6.70;98.00;;;;;;10483113;28;20056;-69
2021/12/07 15:40:26;;;;;;;8.27;3.47;;;6.70;98.00;;;;;;10481135;28;20024;-69
2021/12/07 15:45:27;;;;;;;6.72;3.40;;;6.70;98.00;;;;;;10478053;28;20662;-65
2021/12/07 15:50:31;;;;;;;7.97;3.25;;;6.70;98.00;;;;;;10485903;28;20063;-69
2021/12/07 15:55:34;;;;;;;12.75;3.67;;;6.60;98.00;;;;;;10490342;28;20051;-66
2021/12/07 16:00:39;;;;;;;10.02;3.70;;;6.60;98.00;;;;;;10463745;28;20097;-69
2021/12/07 16:05:43;;;;;;;10.48;3.28;;;6.60;98.00;;;;;;10459740;28;20021;-67
2021/12/07 16:10:48;;;;;;;7.13;3.33;;;6.60;98.30;;;;;;10465945;28;20039;-65
2021/12/07 16:15:55;;;;;;;9.65;2.95;;;6.60;98.10;;;;;;10467880;28;20108;-65
2021/12/07 16:21:00;;;;;;;6.28;3.00;;;6.60;98.10;;;;;;10458829;28;20024;-65
2021/12/07 16:26:03;;;;;;;9.13;2.55;;;6.60;98.10;;;;;;10473854;28;20429;-69
2021/12/07 16:31:03;;;;;;;13.73;3.10;;;6.60;98.10;;;;;;10469385;28;20041;-68
2021/12/07 16:36:06;;;;;;;5.35;2.47;;;6.50;97.90;;;;;;10472572;28;20025;-70
2021/12/07 16:41:08;;;;;;;4.53;2.13;;;6.50;98.10;;;;;;10486621;28;20051;-70
2021/12/07 16:46:09;;;;;;;12.15;2.90;;;6.50;98.10;;;;;;10484279;28;20062;-71
2021/12/07 16:51:11;;;;;;;6.72;2.50;;;6.50;98.10;;;;;;10476375;28;20047;-71
2021/12/07 16:56:12;;;;;;;6.97;2.58;;;7.50;98.30;;;;;;10477315;28;20024;-71
2021/12/07 17:01:13;;;;;;;9.52;2.85;;;6.50;98.00;;;;;;10474664;28;20107;-71
2021/12/07 17:11:52;;;;;;;4.50;2.35;;;6.50;98.10;;;;;;10471009;28;20036;-69
2021/12/07 17:16:54;;;;;;;6.60;2.63;;;6.40;98.00;;;;;;10478798;28;20131;-67
2021/12/07 17:21:55;;;;;;;6.57;2.50;;;6.40;98.00;;;;;;10488276;28;20036;-71
2021/12/07 17:26:55;;;;;;;4.72;2.58;;;6.40;98.00;;;;;;10488591;28;20028;-72
2021/12/07 17:31:56;;;;;;;7.63;2.85;;;6.40;98.00;;;;;;10474738;28;20561;-67
2021/12/07 17:36:57;;;;;;;6.85;2.67;;;6.40;98.00;;;;;;10460592;28;20570;-66
2021/12/07 17:41:58;;;;;;;7.28;2.42;;;6.40;98.00;;;;;;10460929;28;20025;-69
2021/12/07 17:46:58;;;;;;;10.20;3.03;;;6.40;97.90;;;;;;10468784;28;20501;-72
2021/12/07 17:52:03;;;;;;;6.80;3.00;;;6.40;97.90;;;;;;10461410;28;20454;-72
2021/12/07 17:57:05;;;;;;;11.90;3.55;;;6.30;97.90;;;;;;10451068;28;20020;-73
2021/12/07 18:02:06;;;;;;;7.40;3.25;;;6.30;97.90;;;;;;10464392;28;20021;-72
2021/12/07 18:07:07;;;;;;;7.88;2.53;;;6.40;97.90;;;;;;10452253;28;20183;-66
2021/12/07 18:12:08;;;;;;;8.68;2.80;;;6.30;97.90;;;;;;10456471;28;20032;-70
2021/12/07 18:17:09;;;;;;;6.65;2.70;;;6.40;97.80;;;;;;10459149;28;20025;-67
2021/12/07 18:22:10;;;;;;;6.70;2.75;;;6.40;97.70;;;;;;10460003;28;20083;-63
2021/12/07 18:27:13;;;;;;;7.15;2.67;;;6.30;97.70;;;;;;10457094;28;20095;-69
2021/12/07 18:32:14;;;;;;;7.88;3.13;;;6.30;97.70;;;;;;10459997;28;20129;-73
2021/12/07 18:37:15;;;;;;;9.40;3.45;;;6.30;97.60;;;;;;10457687;28;20066;-68
2021/12/07 18:42:16;;;;;;;8.35;2.80;;;6.20;97.60;;;;;;10453096;28;20035;-66
2021/12/07 18:47:16;;;;;;;14.65;2.88;;;6.20;97.60;;;;;;10454941;28;20016;-65
2021/12/07 18:52:17;;;;;;;9.30;2.65;;;6.30;97.60;;;;;;10464083;28;20098;-73
2021/12/07 18:57:18;;;;;;;8.30;3.00;;;6.10;97.50;;;;;;10463932;28;20025;-73
2021/12/07 19:02:19;;;;;;;8.50;2.33;;;6.20;97.50;;;;;;10478194;28;20058;-72
2021/12/07 19:07:19;;;;;;;6.37;2.30;;;6.10;97.40;;;;;;10476015;28;20025;-67
2021/12/07 19:12:20;;;;;;;7.53;2.40;;;6.10;97.40;;;;;;10486352;28;20596;-73
2021/12/07 19:17:21;;;;;;;6.32;2.28;;;6.10;97.40;;;;;;10478939;28;20025;-71
2021/12/07 19:22:21;;;;;;;6.63;2.78;;;6.10;97.40;;;;;;10485373;28;20486;-68
2021/12/07 19:27:24;;;;;;;8.68;2.90;;;6.10;97.30;;;;;;10482364;28;20058;-68
2021/12/07 19:32:25;;;;;;;8.07;2.38;;;6.10;97.30;;;;;;10489147;28;20501;-71
2021/12/07 19:37:25;;;;;;;8.77;2.80;;;6.30;97.30;;;;;;10464272;28;20036;-67
2021/12/07 19:42:27;;;;;;;6.47;2.45;;;6.10;97.20;;;;;;10488233;28;20479;-67
2021/12/07 19:47:28;;;;;;;4.78;2.17;;;6.10;97.20;;;;;;10488840;28;20583;-67
2021/12/07 19:52:31;;;;;;;5.43;2.20;;;6.10;97.20;;;;;;10470197;28;20179;-72
2021/12/07 19:57:32;;;;;;;5.03;2.13;;;6.10;97.10;;;;;;10463389;28;20502;-71
2021/12/07 20:02:33;;;;;;;4.80;2.10;;;6.10;97.10;;;;;;10455116;28;20025;-70
2021/12/07 20:07:36;;;;;;;4.78;2.55;;;6.10;97.10;;;;;;10463161;28;20371;-72
2021/12/07 20:12:37;;;;;;;6.78;2.20;;;6.10;97.00;;;;;;10463356;28;20033;-70
2021/12/07 20:17:38;;;;;;;7.28;1.92;;;6.10;97.00;;;;;;10457478;28;20021;-63
2021/12/07 20:22:40;;;;;;;7.03;2.10;;;6.10;97.00;;;;;;10462169;28;20506;-63
2021/12/07 20:27:41;;;;;;;7.68;2.20;;;6.10;97.00;;;;;;10462665;28;20092;-72
2021/12/07 20:32:42;;;;;;;5.43;2.38;;;6.10;97.00;;;;;;10469940;28;20021;-72
2021/12/07 20:37:43;;;;;;;5.47;1.88;;;6.00;96.90;;;;;;10460419;28;20394;-69
2021/12/07 20:42:44;;;;;;;7.97;2.65;;;6.00;96.90;;;;;;10484937;28;20021;-69
2021/12/07 20:47:45;;;;;;;7.30;2.13;;;6.10;96.90;;;;;;10487847;28;20502;-73
2021/12/07 20:52:46;;;;;;;4.63;2.25;;;6.00;96.80;;;;;;10485684;28;20056;-68
2021/12/07 20:57:47;;;;;;;8.05;2.17;;;6.00;96.80;;;;;;10500218;28;20104;-64
2021/12/07 21:02:48;;;;;;;4.45;2.00;;;6.00;96.80;;;;;;10495532;28;20033;-72
2021/12/07 21:07:49;;;;;;;3.90;1.90;;;6.00;96.80;;;;;;10488486;28;20024;-67
2021/12/07 21:12:50;;;;;;;4.82;2.15;;;6.00;96.70;;;;;;10484624;28;20035;-73
2021/12/07 21:17:51;;;;;;;3.72;2.15;;;6.00;96.70;;;;;;10488913;28;20031;-63
2021/12/07 21:22:53;;;;;;;5.03;2.13;;;6.00;96.70;;;;;;10488621;28;20012;-64
2021/12/07 21:27:53;;;;;;;5.10;2.17;;;6.00;96.70;;;;;;10480428;28;20041;-73
2021/12/07 21:32:54;;;;;;;8.18;2.22;;;6.00;96.70;;;;;;10481229;28;20061;-68
2021/12/07 21:37:55;;;;;;;4.35;1.73;;;6.00;96.70;;;;;;10493455;28;20427;-74
2021/12/07 21:42:56;;;;;;;5.57;2.20;;;6.00;96.60;;;;;;10490067;28;20486;-75
2021/12/07 21:47:57;;;;;;;4.50;2.47;;;6.00;96.70;;;;;;10491718;28;20455;-76
2021/12/07 21:53:02;;;;;;;5.70;2.15;;;6.10;96.70;;;;;;10493710;28;20056;-76
2021/12/07 21:58:03;;;;;;;5.15;2.20;;;6.10;96.70;;;;;;10501740;28;20391;-73
2021/12/07 22:03:05;;;;;;;7.40;2.45;;;6.00;96.70;;;;;;10502188;28;20025;-72
2021/12/07 22:08:07;;;;;;;5.95;1.85;;;6.00;96.70;;;;;;10498786;28;20076;-70
2021/12/07 22:13:12;;;;;;;4.93;2.08;;;6.10;96.80;;;;;;10466016;28;20425;-72
2021/12/07 22:18:13;;;;;;;4.38;2.22;;;6.40;96.80;;;;;;10466027;28;20470;-67
2021/12/07 22:23:15;;;;;;;7.68;2.35;;;6.10;96.70;;;;;;10466017;28;20097;-64
2021/12/07 22:28:16;;;;;;;7.35;1.85;;;6.10;96.80;;;;;;10480693;28;20037;-70
2021/12/07 22:33:19;;;;;;;7.72;1.90;;;6.10;96.80;;;;;;10495429;28;20031;-69
2021/12/07 22:38:20;;;;;;;3.95;1.70;;;6.10;96.80;;;;;;10492407;28;20055;-69
2021/12/07 22:43:22;;;;;;;3.35;2.05;;;6.10;96.90;;;;;;10485981;28;20120;-65
2021/12/07 22:48:24;;;;;;;5.50;2.08;;;6.20;97.00;;;;;;10484035;28;20036;-63
2021/12/07 22:53:25;;;;;;;4.28;1.63;;;6.20;97.00;;;;;;10481749;28;20048;-64
2021/12/07 22:58:26;;;;;;;5.88;2.20;;;6.00;97.00;;;;;;10486075;28;20028;-63
2021/12/07 23:03:29;;;;;;;4.22;1.67;;;6.10;97.10;;;;;;10479659;28;20024;-63
2021/12/07 23:08:30;;;;;;;6.13;1.98;;;6.00;97.10;;;;;;10485258;28;20260;-66
2021/12/07 23:13:32;;;;;;;4.10;1.83;;;6.00;97.10;;;;;;10488441;28;20023;-63
2021/12/07 23:18:35;;;;;;;6.78;2.10;;;4.90;96.90;;;;;;10485046;28;20024;-64
2021/12/07 23:23:38;;;;;;;6.97;1.83;;;6.00;97.20;;;;;;10483669;28;20110;-69
2021/12/07 23:28:41;;;;;;;8.57;1.80;;;6.00;97.30;;;;;;10484724;28;20079;-67
2021/12/07 23:33:45;;;;;;;4.53;1.88;;;6.00;97.30;;;;;;10476739;28;20120;-71
2021/12/07 23:38:50;;;;;;;3.78;1.77;;;6.00;97.40;;;;;;10480582;28;20082;-72
2021/12/07 23:43:52;;;;;;;2.92;1.75;;;6.00;97.40;;;;;;10483238;28;20067;-67
2021/12/07 23:48:54;;;;;;;3.80;1.52;;;6.00;97.40;;;;;;10478615;28;20082;-72
2021/12/07 23:53:55;;;;;;;3.80;1.63;;;6.00;97.40;;;;;;10484637;28;20243;-73
2021/12/07 23:58:55;;;;;;;3.67;1.63;;;6.00;97.50;;;;;;10485983;28;20115;-72
